sensor_id;sensor_type;location;lat;lon;timestamp;temperature;humidity
4874;DHT22;2451;49.970;9.068;2023-06-24T00:00:02;17.20;99.90
4874;DHT22;2451;49.970;9.068;2023-06-24T00:02:32;17.20;99.90
4874;DHT22;2451;49.970;9.068;2023-06-24T00:04:58;17.10;99.90
4874;DHT22;2451;49.970;9.068;2023-06-24T00:07:25;17.00;99.90
4874;DHT22;2451;49.970;9.068;2023-06-24T00:09:51;17.00;99.90
4874;DHT22;2451;49.970;9.068;2023-06-24T00:12:17;17.00;99.90
4874;DHT22;2451;49.970;9.068;2023-06-24T00:14:45;17.00;99.90
4874;DHT22;2451;49.970;9.068;2023-06-24T00:17:11;16.90;99.90
4874;DHT22;2451;49.970;9.068;2023-06-24T00:19:36;16.90;99.90
4874;DHT22;2451;49.970;9.068;2023-06-24T00:22:03;16.90;99.90
4874;DHT22;2451;49.970;9.068;2023-06-24T00:24:28;16.90;99.90
4874;DHT22;2451;49.970;9.068;2023-06-24T00:26:56;16.90;99.90
4874;DHT22;2451;49.970;9.068;2023-06-24T00:29:22;16.90;99.90
4874;DHT22;2451;49.970;9.068;2023-06-24T00:31:47;16.90;99.90
4874;DHT22;2451;49.970;9.068;2023-06-24T00:34:14;16.90;99.90
4874;DHT22;2451;49.970;9.068;2023-06-24T00:36:39;16.90;99.90
4874;DHT22;2451;49.970;9.068;2023-06-24T00:39:05;16.90;99.90
4874;DHT22;2451;49.970;9.068;2023-06-24T00:41:32;16.90;99.90
4874;DHT22;2451;49.970;9.068;2023-06-24T00:43:59;16.90;99.90
4874;DHT22;2451;49.970;9.068;2023-06-24T00:46:25;16.80;99.90
4874;DHT22;2451;49.970;9.068;2023-06-24T00:48:55;16.80;99.90
4874;DHT22;2451;49.970;9.068;2023-06-24T00:51:21;16.80;99.90
4874;DHT22;2451;49.970;9.068;2023-06-24T00:53:55;16.80;99.90
4874;DHT22;2451;49.970;9.068;2023-06-24T00:56:22;16.80;99.90
4874;DHT22;2451;49.970;9.068;2023-06-24T00:58:50;16.70;99.90
4874;DHT22;2451;49.970;9.068;2023-06-24T01:01:17;16.70;99.90
4874;DHT22;2451;49.970;9.068;2023-06-24T01:03:43;16.70;99.90
4874;DHT22;2451;49.970;9.068;2023-06-24T01:06:09;16.70;99.90
4874;DHT22;2451;49.970;9.068;2023-06-24T01:08:35;16.70;99.90
4874;DHT22;2451;49.970;9.068;2023-06-24T01:11:01;16.70;99.90
4874;DHT22;2451;49.970;9.068;2023-06-24T01:13:26;16.60;99.90
4874;DHT22;2451;49.970;9.068;2023-06-24T01:15:52;16.60;99.90
4874;DHT22;2451;49.970;9.068;2023-06-24T01:18:29;16.60;99.90
4874;DHT22;2451;49.970;9.068;2023-06-24T01:21:03;16.50;99.90
4874;DHT22;2451;49.970;9.068;2023-06-24T01:26:58;16.50;99.90
4874;DHT22;2451;49.970;9.068;2023-06-24T01:34:32;16.30;99.90
4874;DHT22;2451;49.970;9.068;2023-06-24T01:37:19;16.20;99.90
4874;DHT22;2451;49.970;9.068;2023-06-24T01:39:49;16.20;99.90
4874;DHT22;2451;49.970;9.068;2023-06-24T01:42:17;16.10;99.90
4874;DHT22;2451;49.970;9.068;2023-06-24T01:44:45;16.10;99.90
4874;DHT22;2451;49.970;9.068;2023-06-24T01:47:16;16.10;99.90
4874;DHT22;2451;49.970;9.068;2023-06-24T01:49:44;16.10;99.90
4874;DHT22;2451;49.970;9.068;2023-06-24T01:52:11;16.20;99.90
4874;DHT22;2451;49.970;9.068;2023-06-24T01:54:39;16.20;99.90
4874;DHT22;2451;49.970;9.068;2023-06-24T01:57:06;16.20;99.90
4874;DHT22;2451;49.970;9.068;2023-06-24T01:59:34;16.20;99.90
4874;DHT22;2451;49.970;9.068;2023-06-24T02:02:01;16.20;99.90
4874;DHT22;2451;49.970;9.068;2023-06-24T02:04:28;16.20;99.90
4874;DHT22;2451;49.970;9.068;2023-06-24T02:06:59;16.20;99.90
4874;DHT22;2451;49.970;9.068;2023-06-24T02:09:25;16.10;99.90
4874;DHT22;2451;49.970;9.068;2023-06-24T02:11:52;16.10;99.90
4874;DHT22;2451;49.970;9.068;2023-06-24T02:14:19;16.00;99.90
4874;DHT22;2451;49.970;9.068;2023-06-24T02:16:46;15.90;99.90
4874;DHT22;2451;49.970;9.068;2023-06-24T02:19:13;15.90;99.90
4874;DHT22;2451;49.970;9.068;2023-06-24T02:21:43;15.90;99.90
4874;DHT22;2451;49.970;9.068;2023-06-24T02:24:10;15.90;99.90
4874;DHT22;2451;49.970;9.068;2023-06-24T02:26:36;15.90;99.90
4874;DHT22;2451;49.970;9.068;2023-06-24T02:29:08;15.90;99.90
4874;DHT22;2451;49.970;9.068;2023-06-24T02:31:34;15.90;99.90
4874;DHT22;2451;49.970;9.068;2023-06-24T02:33:59;15.90;99.90
4874;DHT22;2451;49.970;9.068;2023-06-24T02:36:25;15.90;99.90
4874;DHT22;2451;49.970;9.068;2023-06-24T02:38:50;15.80;99.90
4874;DHT22;2451;49.970;9.068;2023-06-24T02:41:16;15.80;99.90
4874;DHT22;2451;49.970;9.068;2023-06-24T02:43:41;15.80;99.90
4874;DHT22;2451;49.970;9.068;2023-06-24T02:46:08;15.70;99.90
4874;DHT22;2451;49.970;9.068;2023-06-24T02:48:35;15.70;99.90
4874;DHT22;2451;49.970;9.068;2023-06-24T02:51:03;15.70;99.90
4874;DHT22;2451;49.970;9.068;2023-06-24T02:53:29;15.70;99.90
4874;DHT22;2451;49.970;9.068;2023-06-24T02:55:56;15.70;99.90
4874;DHT22;2451;49.970;9.068;2023-06-24T02:58:23;15.70;99.90
4874;DHT22;2451;49.970;9.068;2023-06-24T03:00:49;15.70;99.90
4874;DHT22;2451;49.970;9.068;2023-06-24T03:03:15;15.70;99.90
4874;DHT22;2451;49.970;9.068;2023-06-24T03:05:41;15.70;99.90
4874;DHT22;2451;49.970;9.068;2023-06-24T03:08:10;15.70;99.90
4874;DHT22;2451;49.970;9.068;2023-06-24T03:10:36;15.70;99.90
4874;DHT22;2451;49.970;9.068;2023-06-24T03:13:02;15.70;99.90
4874;DHT22;2451;49.970;9.068;2023-06-24T03:15:28;15.60;99.90
4874;DHT22;2451;49.970;9.068;2023-06-24T03:17:54;15.50;99.90
4874;DHT22;2451;49.970;9.068;2023-06-24T03:20:20;15.50;99.90
4874;DHT22;2451;49.970;9.068;2023-06-24T03:22:46;15.50;99.90
4874;DHT22;2451;49.970;9.068;2023-06-24T03:25:11;15.50;99.90
4874;DHT22;2451;49.970;9.068;2023-06-24T03:27:37;15.50;99.90
4874;DHT22;2451;49.970;9.068;2023-06-24T03:30:03;15.50;99.90
4874;DHT22;2451;49.970;9.068;2023-06-24T03:32:29;15.50;99.90
4874;DHT22;2451;49.970;9.068;2023-06-24T03:34:54;15.50;99.90
4874;DHT22;2451;49.970;9.068;2023-06-24T03:37:20;15.50;99.90
4874;DHT22;2451;49.970;9.068;2023-06-24T03:39:45;15.50;99.90
4874;DHT22;2451;49.970;9.068;2023-06-24T03:42:11;15.40;99.90
4874;DHT22;2451;49.970;9.068;2023-06-24T03:44:36;15.50;99.90
4874;DHT22;2451;49.970;9.068;2023-06-24T03:47:02;15.50;99.90
4874;DHT22;2451;49.970;9.068;2023-06-24T03:49:27;15.40;99.90
4874;DHT22;2451;49.970;9.068;2023-06-24T03:51:53;15.40;99.90
4874;DHT22;2451;49.970;9.068;2023-06-24T03:54:18;15.30;99.90
4874;DHT22;2451;49.970;9.068;2023-06-24T03:56:44;15.30;99.90
4874;DHT22;2451;49.970;9.068;2023-06-24T03:59:09;15.40;99.90
4874;DHT22;2451;49.970;9.068;2023-06-24T04:01:35;15.30;99.90
4874;DHT22;2451;49.970;9.068;2023-06-24T04:04:02;15.40;99.90
4874;DHT22;2451;49.970;9.068;2023-06-24T04:06:27;15.40;99.90
4874;DHT22;2451;49.970;9.068;2023-06-24T04:08:53;15.40;99.90
4874;DHT22;2451;49.970;9.068;2023-06-24T04:11:18;15.50;99.90
4874;DHT22;2451;49.970;9.068;2023-06-24T04:13:45;15.50;99.90
4874;DHT22;2451;49.970;9.068;2023-06-24T04:16:11;15.50;99.90
4874;DHT22;2451;49.970;9.068;2023-06-24T04:18:36;15.50;99.90
4874;DHT22;2451;49.970;9.068;2023-06-24T04:21:05;15.50;99.90
4874;DHT22;2451;49.970;9.068;2023-06-24T04:23:32;15.50;99.90
4874;DHT22;2451;49.970;9.068;2023-06-24T04:25:58;15.50;99.90
4874;DHT22;2451;49.970;9.068;2023-06-24T04:28:23;15.50;99.90
4874;DHT22;2451;49.970;9.068;2023-06-24T04:30:49;15.60;99.90
4874;DHT22;2451;49.970;9.068;2023-06-24T04:33:14;15.60;99.90
4874;DHT22;2451;49.970;9.068;2023-06-24T04:35:40;15.60;99.90
4874;DHT22;2451;49.970;9.068;2023-06-24T04:38:05;15.60;99.90
4874;DHT22;2451;49.970;9.068;2023-06-24T04:40:31;15.60;99.90
4874;DHT22;2451;49.970;9.068;2023-06-24T04:42:56;15.60;99.90
4874;DHT22;2451;49.970;9.068;2023-06-24T04:45:22;15.70;99.90
4874;DHT22;2451;49.970;9.068;2023-06-24T04:47:47;15.70;99.90
4874;DHT22;2451;49.970;9.068;2023-06-24T04:50:13;15.80;99.90
4874;DHT22;2451;49.970;9.068;2023-06-24T04:52:39;15.80;99.90
4874;DHT22;2451;49.970;9.068;2023-06-24T04:55:05;15.90;99.90
4874;DHT22;2451;49.970;9.068;2023-06-24T04:57:32;16.00;99.90
4874;DHT22;2451;49.970;9.068;2023-06-24T04:59:58;16.00;99.90
4874;DHT22;2451;49.970;9.068;2023-06-24T05:02:24;16.00;99.90
4874;DHT22;2451;49.970;9.068;2023-06-24T05:04:51;16.10;99.90
4874;DHT22;2451;49.970;9.068;2023-06-24T05:07:16;16.20;99.90
4874;DHT22;2451;49.970;9.068;2023-06-24T05:09:42;16.30;99.90
4874;DHT22;2451;49.970;9.068;2023-06-24T05:12:09;16.40;99.90
4874;DHT22;2451;49.970;9.068;2023-06-24T05:14:35;16.50;99.90
4874;DHT22;2451;49.970;9.068;2023-06-24T05:17:02;16.60;99.90
4874;DHT22;2451;49.970;9.068;2023-06-24T05:19:27;16.70;99.90
4874;DHT22;2451;49.970;9.068;2023-06-24T05:21:53;16.80;99.90
4874;DHT22;2451;49.970;9.068;2023-06-24T05:24:18;16.80;99.90
4874;DHT22;2451;49.970;9.068;2023-06-24T05:26:48;16.90;99.90
4874;DHT22;2451;49.970;9.068;2023-06-24T05:29:14;17.00;99.90
4874;DHT22;2451;49.970;9.068;2023-06-24T05:31:40;17.00;99.90
4874;DHT22;2451;49.970;9.068;2023-06-24T05:34:06;17.10;99.90
4874;DHT22;2451;49.970;9.068;2023-06-24T05:36:31;17.20;99.90
4874;DHT22;2451;49.970;9.068;2023-06-24T05:38:57;17.30;99.90
4874;DHT22;2451;49.970;9.068;2023-06-24T05:41:22;17.30;99.90
4874;DHT22;2451;49.970;9.068;2023-06-24T05:43:48;17.40;99.90
4874;DHT22;2451;49.970;9.068;2023-06-24T05:46:13;17.50;99.90
4874;DHT22;2451;49.970;9.068;2023-06-24T05:48:39;17.60;99.90
4874;DHT22;2451;49.970;9.068;2023-06-24T05:51:04;17.70;99.90
4874;DHT22;2451;49.970;9.068;2023-06-24T05:53:30;17.80;99.90
4874;DHT22;2451;49.970;9.068;2023-06-24T05:55:55;17.90;99.90
4874;DHT22;2451;49.970;9.068;2023-06-24T05:58:21;18.10;99.90
4874;DHT22;2451;49.970;9.068;2023-06-24T06:00:46;18.10;99.90
4874;DHT22;2451;49.970;9.068;2023-06-24T06:03:12;18.20;99.90
4874;DHT22;2451;49.970;9.068;2023-06-24T06:05:37;18.30;99.90
4874;DHT22;2451;49.970;9.068;2023-06-24T06:08:03;18.40;99.90
4874;DHT22;2451;49.970;9.068;2023-06-24T06:10:29;18.50;99.90
4874;DHT22;2451;49.970;9.068;2023-06-24T06:12:55;18.60;99.90
4874;DHT22;2451;49.970;9.068;2023-06-24T06:15:21;18.70;99.90
4874;DHT22;2451;49.970;9.068;2023-06-24T06:17:46;18.80;99.90
4874;DHT22;2451;49.970;9.068;2023-06-24T06:20:12;18.90;99.90
4874;DHT22;2451;49.970;9.068;2023-06-24T06:22:37;19.00;99.90
4874;DHT22;2451;49.970;9.068;2023-06-24T06:25:07;19.20;99.90
4874;DHT22;2451;49.970;9.068;2023-06-24T06:27:33;19.30;99.90
4874;DHT22;2451;49.970;9.068;2023-06-24T06:29:59;19.50;99.90
4874;DHT22;2451;49.970;9.068;2023-06-24T06:32:24;19.60;99.90
4874;DHT22;2451;49.970;9.068;2023-06-24T06:34:50;19.70;99.90
4874;DHT22;2451;49.970;9.068;2023-06-24T06:37:15;19.90;99.90
4874;DHT22;2451;49.970;9.068;2023-06-24T06:39:41;20.10;99.90
4874;DHT22;2451;49.970;9.068;2023-06-24T06:42:07;20.30;99.90
4874;DHT22;2451;49.970;9.068;2023-06-24T06:44:32;20.40;99.90
4874;DHT22;2451;49.970;9.068;2023-06-24T06:46:58;20.50;99.90
4874;DHT22;2451;49.970;9.068;2023-06-24T06:49:23;20.60;99.90
4874;DHT22;2451;49.970;9.068;2023-06-24T06:51:49;20.70;99.90
4874;DHT22;2451;49.970;9.068;2023-06-24T06:54:14;20.80;99.90
4874;DHT22;2451;49.970;9.068;2023-06-24T06:56:40;21.00;99.90
4874;DHT22;2451;49.970;9.068;2023-06-24T06:59:05;21.10;99.90
4874;DHT22;2451;49.970;9.068;2023-06-24T07:01:31;21.30;99.90
4874;DHT22;2451;49.970;9.068;2023-06-24T07:03:56;21.40;99.90
4874;DHT22;2451;49.970;9.068;2023-06-24T07:06:22;21.60;99.90
4874;DHT22;2451;49.970;9.068;2023-06-24T07:08:48;21.70;99.90
4874;DHT22;2451;49.970;9.068;2023-06-24T07:11:13;21.80;99.90
4874;DHT22;2451;49.970;9.068;2023-06-24T07:13:39;22.00;99.90
4874;DHT22;2451;49.970;9.068;2023-06-24T07:16:04;22.20;99.90
4874;DHT22;2451;49.970;9.068;2023-06-24T07:18:30;22.40;99.90
4874;DHT22;2451;49.970;9.068;2023-06-24T07:20:56;22.70;99.90
4874;DHT22;2451;49.970;9.068;2023-06-24T07:23:22;22.90;99.90
4874;DHT22;2451;49.970;9.068;2023-06-24T07:25:48;23.10;99.90
4874;DHT22;2451;49.970;9.068;2023-06-24T07:28:13;23.40;99.90
4874;DHT22;2451;49.970;9.068;2023-06-24T07:30:40;23.60;99.90
4874;DHT22;2451;49.970;9.068;2023-06-24T07:33:07;23.80;99.90
4874;DHT22;2451;49.970;9.068;2023-06-24T07:35:32;24.00;99.90
4874;DHT22;2451;49.970;9.068;2023-06-24T07:37:58;24.20;99.90
4874;DHT22;2451;49.970;9.068;2023-06-24T07:40:24;24.40;99.90
4874;DHT22;2451;49.970;9.068;2023-06-24T07:42:50;24.40;99.90
4874;DHT22;2451;49.970;9.068;2023-06-24T07:45:15;24.70;99.90
4874;DHT22;2451;49.970;9.068;2023-06-24T07:47:41;24.80;99.90
4874;DHT22;2451;49.970;9.068;2023-06-24T07:50:06;25.10;99.90
4874;DHT22;2451;49.970;9.068;2023-06-24T07:52:32;25.10;99.90
4874;DHT22;2451;49.970;9.068;2023-06-24T07:54:58;25.20;99.90
4874;DHT22;2451;49.970;9.068;2023-06-24T07:57:26;25.30;99.90
4874;DHT22;2451;49.970;9.068;2023-06-24T07:59:52;25.40;99.90
4874;DHT22;2451;49.970;9.068;2023-06-24T08:02:17;25.50;99.90
4874;DHT22;2451;49.970;9.068;2023-06-24T08:04:43;25.80;99.90
4874;DHT22;2451;49.970;9.068;2023-06-24T08:07:08;26.00;99.90
4874;DHT22;2451;49.970;9.068;2023-06-24T08:09:34;26.20;99.90
4874;DHT22;2451;49.970;9.068;2023-06-24T08:11:59;26.40;99.90
4874;DHT22;2451;49.970;9.068;2023-06-24T08:14:25;26.40;99.90
4874;DHT22;2451;49.970;9.068;2023-06-24T08:16:50;26.70;99.90
4874;DHT22;2451;49.970;9.068;2023-06-24T08:19:15;26.70;99.90
4874;DHT22;2451;49.970;9.068;2023-06-24T08:21:41;26.90;99.90
4874;DHT22;2451;49.970;9.068;2023-06-24T08:24:07;27.20;99.90
4874;DHT22;2451;49.970;9.068;2023-06-24T08:26:32;27.40;99.90
4874;DHT22;2451;49.970;9.068;2023-06-24T08:28:58;27.60;99.90
4874;DHT22;2451;49.970;9.068;2023-06-24T08:31:25;27.70;99.10
4874;DHT22;2451;49.970;9.068;2023-06-24T08:33:54;27.70;98.90
4874;DHT22;2451;49.970;9.068;2023-06-24T08:36:21;27.80;99.10
4874;DHT22;2451;49.970;9.068;2023-06-24T08:38:47;27.80;98.20
4874;DHT22;2451;49.970;9.068;2023-06-24T08:41:13;27.80;97.30
4874;DHT22;2451;49.970;9.068;2023-06-24T08:43:38;27.90;97.70
4874;DHT22;2451;49.970;9.068;2023-06-24T08:46:05;28.10;97.00
4874;DHT22;2451;49.970;9.068;2023-06-24T08:48:31;28.30;95.90
4874;DHT22;2451;49.970;9.068;2023-06-24T08:50:58;28.40;95.90
4874;DHT22;2451;49.970;9.068;2023-06-24T08:53:26;28.50;95.10
4874;DHT22;2451;49.970;9.068;2023-06-24T08:55:54;28.50;93.30
4874;DHT22;2451;49.970;9.068;2023-06-24T08:58:20;28.60;93.50
4874;DHT22;2451;49.970;9.068;2023-06-24T09:00:46;28.90;93.80
4874;DHT22;2451;49.970;9.068;2023-06-24T09:03:12;29.00;92.80
4874;DHT22;2451;49.970;9.068;2023-06-24T09:05:37;29.20;92.00
4874;DHT22;2451;49.970;9.068;2023-06-24T09:08:03;29.20;92.30
4874;DHT22;2451;49.970;9.068;2023-06-24T09:10:30;29.50;92.10
4874;DHT22;2451;49.970;9.068;2023-06-24T09:12:57;29.60;91.00
4874;DHT22;2451;49.970;9.068;2023-06-24T09:15:22;29.80;90.90
4874;DHT22;2451;49.970;9.068;2023-06-24T09:17:48;29.70;90.00
4874;DHT22;2451;49.970;9.068;2023-06-24T09:20:14;29.10;89.20
4874;DHT22;2451;49.970;9.068;2023-06-24T09:22:45;28.60;90.50
4874;DHT22;2451;49.970;9.068;2023-06-24T09:25:17;28.40;90.60
4874;DHT22;2451;49.970;9.068;2023-06-24T09:27:48;28.50;90.30
4874;DHT22;2451;49.970;9.068;2023-06-24T09:30:19;28.80;90.30
4874;DHT22;2451;49.970;9.068;2023-06-24T09:32:46;28.90;88.70
4874;DHT22;2451;49.970;9.068;2023-06-24T09:35:11;29.30;89.30
4874;DHT22;2451;49.970;9.068;2023-06-24T09:37:38;29.60;88.50
4874;DHT22;2451;49.970;9.068;2023-06-24T09:40:04;29.80;83.30
4874;DHT22;2451;49.970;9.068;2023-06-24T09:42:31;29.80;82.10
4874;DHT22;2451;49.970;9.068;2023-06-24T09:44:57;29.70;81.50
4874;DHT22;2451;49.970;9.068;2023-06-24T09:47:23;29.70;82.70
4874;DHT22;2451;49.970;9.068;2023-06-24T09:49:53;29.70;81.50
4874;DHT22;2451;49.970;9.068;2023-06-24T09:52:19;29.70;78.60
4874;DHT22;2451;49.970;9.068;2023-06-24T09:54:47;29.70;78.20
4874;DHT22;2451;49.970;9.068;2023-06-24T09:57:19;29.70;75.50
4874;DHT22;2451;49.970;9.068;2023-06-24T09:59:48;29.80;78.50
4874;DHT22;2451;49.970;9.068;2023-06-24T10:02:15;30.00;75.30
4874;DHT22;2451;49.970;9.068;2023-06-24T10:04:41;30.30;73.80
4874;DHT22;2451;49.970;9.068;2023-06-24T10:07:07;30.40;73.60
4874;DHT22;2451;49.970;9.068;2023-06-24T10:09:33;30.70;74.20
4874;DHT22;2451;49.970;9.068;2023-06-24T10:11:58;30.90;71.20
4874;DHT22;2451;49.970;9.068;2023-06-24T10:14:24;30.90;68.80
4874;DHT22;2451;49.970;9.068;2023-06-24T10:16:50;31.20;69.50
4874;DHT22;2451;49.970;9.068;2023-06-24T10:19:19;31.50;70.40
4874;DHT22;2451;49.970;9.068;2023-06-24T10:21:45;31.60;66.20
4874;DHT22;2451;49.970;9.068;2023-06-24T10:24:12;31.50;66.60
4874;DHT22;2451;49.970;9.068;2023-06-24T10:26:39;31.60;66.30
4874;DHT22;2451;49.970;9.068;2023-06-24T10:36:58;31.40;63.60
4874;DHT22;2451;49.970;9.068;2023-06-24T10:39:54;31.30;65.40
4874;DHT22;2451;49.970;9.068;2023-06-24T10:42:39;31.80;66.20
4874;DHT22;2451;49.970;9.068;2023-06-24T10:47:36;32.20;62.80
4874;DHT22;2451;49.970;9.068;2023-06-24T10:50:03;32.30;60.40
4874;DHT22;2451;49.970;9.068;2023-06-24T10:52:29;32.00;60.70
4874;DHT22;2451;49.970;9.068;2023-06-24T10:54:56;31.20;60.00
4874;DHT22;2451;49.970;9.068;2023-06-24T10:57:25;30.40;60.10
4874;DHT22;2451;49.970;9.068;2023-06-24T10:59:53;29.80;60.60
4874;DHT22;2451;49.970;9.068;2023-06-24T11:02:21;29.80;58.80
4874;DHT22;2451;49.970;9.068;2023-06-24T11:07:13;30.60;60.90
4874;DHT22;2451;49.970;9.068;2023-06-24T11:09:42;31.00;58.60
4874;DHT22;2451;49.970;9.068;2023-06-24T11:12:09;31.40;59.60
4874;DHT22;2451;49.970;9.068;2023-06-24T11:14:36;31.50;57.40
4874;DHT22;2451;49.970;9.068;2023-06-24T11:17:02;31.90;58.30
4874;DHT22;2451;49.970;9.068;2023-06-24T11:19:29;32.20;57.60
4874;DHT22;2451;49.970;9.068;2023-06-24T11:22:01;32.50;53.70
4874;DHT22;2451;49.970;9.068;2023-06-24T11:24:28;32.50;52.40
4874;DHT22;2451;49.970;9.068;2023-06-24T11:26:53;32.60;51.30
4874;DHT22;2451;49.970;9.068;2023-06-24T11:29:19;33.00;51.80
4874;DHT22;2451;49.970;9.068;2023-06-24T11:31:45;33.30;50.30
4874;DHT22;2451;49.970;9.068;2023-06-24T11:34:11;33.30;49.80
4874;DHT22;2451;49.970;9.068;2023-06-24T11:36:36;33.30;50.70
4874;DHT22;2451;49.970;9.068;2023-06-24T11:39:02;33.40;51.90
4874;DHT22;2451;49.970;9.068;2023-06-24T11:41:28;33.20;51.50
4874;DHT22;2451;49.970;9.068;2023-06-24T11:43:54;33.20;49.20
4874;DHT22;2451;49.970;9.068;2023-06-24T11:46:25;33.00;49.70
4874;DHT22;2451;49.970;9.068;2023-06-24T11:48:51;33.10;47.70
4874;DHT22;2451;49.970;9.068;2023-06-24T11:51:17;33.00;47.00
4874;DHT22;2451;49.970;9.068;2023-06-24T11:53:43;32.90;47.10
4874;DHT22;2451;49.970;9.068;2023-06-24T11:56:10;33.30;48.80
4874;DHT22;2451;49.970;9.068;2023-06-24T11:58:35;33.50;47.90
4874;DHT22;2451;49.970;9.068;2023-06-24T12:01:01;33.80;49.10
4874;DHT22;2451;49.970;9.068;2023-06-24T12:03:28;34.10;48.90
4874;DHT22;2451;49.970;9.068;2023-06-24T12:05:54;34.40;44.60
4874;DHT22;2451;49.970;9.068;2023-06-24T12:08:20;34.40;45.00
4874;DHT22;2451;49.970;9.068;2023-06-24T12:10:48;34.20;44.40
4874;DHT22;2451;49.970;9.068;2023-06-24T12:13:13;34.10;43.80
4874;DHT22;2451;49.970;9.068;2023-06-24T12:15:39;33.70;43.90
4874;DHT22;2451;49.970;9.068;2023-06-24T12:18:05;33.60;44.60
4874;DHT22;2451;49.970;9.068;2023-06-24T12:20:31;33.50;44.90
4874;DHT22;2451;49.970;9.068;2023-06-24T12:22:58;33.40;46.20
4874;DHT22;2451;49.970;9.068;2023-06-24T12:25:24;33.50;46.80
4874;DHT22;2451;49.970;9.068;2023-06-24T12:27:50;33.00;46.10
4874;DHT22;2451;49.970;9.068;2023-06-24T12:30:15;32.10;46.60
4874;DHT22;2451;49.970;9.068;2023-06-24T12:32:45;32.00;46.50
4874;DHT22;2451;49.970;9.068;2023-06-24T12:35:11;32.00;45.90
4874;DHT22;2451;49.970;9.068;2023-06-24T12:37:36;32.40;46.60
4874;DHT22;2451;49.970;9.068;2023-06-24T12:40:05;32.90;46.10
4874;DHT22;2451;49.970;9.068;2023-06-24T12:42:31;33.00;44.40
4874;DHT22;2451;49.970;9.068;2023-06-24T12:44:57;33.30;43.50
4874;DHT22;2451;49.970;9.068;2023-06-24T12:47:22;33.40;43.80
4874;DHT22;2451;49.970;9.068;2023-06-24T12:49:48;33.60;43.70
4874;DHT22;2451;49.970;9.068;2023-06-24T12:52:14;33.90;43.50
4874;DHT22;2451;49.970;9.068;2023-06-24T12:54:40;34.20;42.90
4874;DHT22;2451;49.970;9.068;2023-06-24T12:57:06;34.30;42.40
4874;DHT22;2451;49.970;9.068;2023-06-24T12:59:32;34.50;41.70
4874;DHT22;2451;49.970;9.068;2023-06-24T13:01:57;34.40;40.60
4874;DHT22;2451;49.970;9.068;2023-06-24T13:04:23;33.90;40.70
4874;DHT22;2451;49.970;9.068;2023-06-24T13:06:50;33.30;42.50
4874;DHT22;2451;49.970;9.068;2023-06-24T13:09:16;33.00;44.70
4874;DHT22;2451;49.970;9.068;2023-06-24T13:11:42;33.10;44.80
4874;DHT22;2451;49.970;9.068;2023-06-24T13:14:08;33.10;44.40
4874;DHT22;2451;49.970;9.068;2023-06-24T13:16:35;33.30;44.80
4874;DHT22;2451;49.970;9.068;2023-06-24T13:19:01;33.60;44.80
4874;DHT22;2451;49.970;9.068;2023-06-24T13:21:26;33.50;42.90
4874;DHT22;2451;49.970;9.068;2023-06-24T13:23:52;33.40;42.20
4874;DHT22;2451;49.970;9.068;2023-06-24T13:26:17;33.30;42.80
4874;DHT22;2451;49.970;9.068;2023-06-24T13:28:43;33.40;44.70
4874;DHT22;2451;49.970;9.068;2023-06-24T13:31:09;33.10;43.90
4874;DHT22;2451;49.970;9.068;2023-06-24T13:33:35;32.50;44.30
4874;DHT22;2451;49.970;9.068;2023-06-24T13:36:00;31.90;45.10
4874;DHT22;2451;49.970;9.068;2023-06-24T13:38:27;31.20;45.70
4874;DHT22;2451;49.970;9.068;2023-06-24T13:40:53;30.60;46.80
4874;DHT22;2451;49.970;9.068;2023-06-24T13:43:19;30.10;47.20
4874;DHT22;2451;49.970;9.068;2023-06-24T13:45:44;29.80;47.50
4874;DHT22;2451;49.970;9.068;2023-06-24T13:48:10;29.40;48.00
4874;DHT22;2451;49.970;9.068;2023-06-24T13:50:35;29.20;49.10
4874;DHT22;2451;49.970;9.068;2023-06-24T13:53:01;29.10;49.80
4874;DHT22;2451;49.970;9.068;2023-06-24T13:55:27;29.00;48.50
4874;DHT22;2451;49.970;9.068;2023-06-24T13:57:52;29.20;49.30
4874;DHT22;2451;49.970;9.068;2023-06-24T14:00:19;29.50;48.70
4874;DHT22;2451;49.970;9.068;2023-06-24T14:02:45;29.90;48.60
4874;DHT22;2451;49.970;9.068;2023-06-24T14:05:10;30.20;43.90
4874;DHT22;2451;49.970;9.068;2023-06-24T14:07:36;30.50;46.00
4874;DHT22;2451;49.970;9.068;2023-06-24T14:10:02;30.90;44.70
4874;DHT22;2451;49.970;9.068;2023-06-24T14:12:27;31.10;44.10
4874;DHT22;2451;49.970;9.068;2023-06-24T14:14:53;31.20;44.00
4874;DHT22;2451;49.970;9.068;2023-06-24T14:17:18;31.20;43.90
4874;DHT22;2451;49.970;9.068;2023-06-24T14:19:44;31.40;43.60
4874;DHT22;2451;49.970;9.068;2023-06-24T14:22:09;31.50;44.40
4874;DHT22;2451;49.970;9.068;2023-06-24T14:24:36;31.60;43.80
4874;DHT22;2451;49.970;9.068;2023-06-24T14:27:04;31.30;44.30
4874;DHT22;2451;49.970;9.068;2023-06-24T14:29:30;31.40;44.10
4874;DHT22;2451;49.970;9.068;2023-06-24T14:31:55;31.60;45.20
4874;DHT22;2451;49.970;9.068;2023-06-24T14:34:21;31.40;44.50
4874;DHT22;2451;49.970;9.068;2023-06-24T14:36:47;31.30;45.40
4874;DHT22;2451;49.970;9.068;2023-06-24T14:39:14;31.50;47.00
4874;DHT22;2451;49.970;9.068;2023-06-24T14:41:40;31.70;46.20
4874;DHT22;2451;49.970;9.068;2023-06-24T14:44:06;32.00;45.50
4874;DHT22;2451;49.970;9.068;2023-06-24T14:46:31;32.20;45.10
4874;DHT22;2451;49.970;9.068;2023-06-24T14:48:57;32.30;46.00
4874;DHT22;2451;49.970;9.068;2023-06-24T14:51:24;32.30;43.20
4874;DHT22;2451;49.970;9.068;2023-06-24T14:53:49;32.10;43.50
4874;DHT22;2451;49.970;9.068;2023-06-24T14:56:15;32.00;42.90
4874;DHT22;2451;49.970;9.068;2023-06-24T14:58:40;31.70;43.10
4874;DHT22;2451;49.970;9.068;2023-06-24T15:01:06;31.30;44.10
4874;DHT22;2451;49.970;9.068;2023-06-24T15:03:31;31.00;43.80
4874;DHT22;2451;49.970;9.068;2023-06-24T15:05:57;30.60;44.70
4874;DHT22;2451;49.970;9.068;2023-06-24T15:08:22;30.60;46.40
4874;DHT22;2451;49.970;9.068;2023-06-24T15:10:50;30.70;45.40
4874;DHT22;2451;49.970;9.068;2023-06-24T15:13:16;31.00;46.40
4874;DHT22;2451;49.970;9.068;2023-06-24T15:15:41;31.20;44.30
4874;DHT22;2451;49.970;9.068;2023-06-24T15:18:07;31.30;42.90
4874;DHT22;2451;49.970;9.068;2023-06-24T15:20:33;31.30;43.60
4874;DHT22;2451;49.970;9.068;2023-06-24T15:22:58;31.10;45.40
4874;DHT22;2451;49.970;9.068;2023-06-24T15:25:24;31.20;44.70
4874;DHT22;2451;49.970;9.068;2023-06-24T15:27:50;31.20;42.60
4874;DHT22;2451;49.970;9.068;2023-06-24T15:30:16;31.30;42.90
4874;DHT22;2451;49.970;9.068;2023-06-24T15:32:41;31.30;42.90
4874;DHT22;2451;49.970;9.068;2023-06-24T15:35:08;31.40;43.10
4874;DHT22;2451;49.970;9.068;2023-06-24T15:37:33;31.40;42.70
4874;DHT22;2451;49.970;9.068;2023-06-24T15:39:59;31.40;41.40
4874;DHT22;2451;49.970;9.068;2023-06-24T15:42:24;31.40;41.20
4874;DHT22;2451;49.970;9.068;2023-06-24T15:44:50;31.60;41.00
4874;DHT22;2451;49.970;9.068;2023-06-24T15:47:16;31.60;41.00
4874;DHT22;2451;49.970;9.068;2023-06-24T15:49:41;31.50;40.70
4874;DHT22;2451;49.970;9.068;2023-06-24T15:52:08;31.50;41.10
4874;DHT22;2451;49.970;9.068;2023-06-24T15:54:34;31.60;41.20
4874;DHT22;2451;49.970;9.068;2023-06-24T15:56:59;31.50;40.40
4874;DHT22;2451;49.970;9.068;2023-06-24T15:59:25;31.60;38.90
4874;DHT22;2451;49.970;9.068;2023-06-24T16:01:50;31.40;38.50
4874;DHT22;2451;49.970;9.068;2023-06-24T16:04:16;31.30;37.90
4874;DHT22;2451;49.970;9.068;2023-06-24T16:06:41;31.10;38.60
4874;DHT22;2451;49.970;9.068;2023-06-24T16:09:07;30.90;39.50
4874;DHT22;2451;49.970;9.068;2023-06-24T16:11:32;30.80;39.60
4874;DHT22;2451;49.970;9.068;2023-06-24T16:13:58;30.70;40.00
4874;DHT22;2451;49.970;9.068;2023-06-24T16:16:23;30.70;39.70